Farmers Retreat, Indiana
Current Conditions -  °F | °C
As of 7:52 AM on Friday 19 Dec 2014 (Local Time) from KCVG Reporting Station
Overcast Overcast  
Wind Chill: -3°   Ceiling: 1700
Heat Index: -3°   Visibility: 8mi
Dew Point: -7°   Wind: 3mph
Humidity: 75%   Direction: 10°N
Pressure: 30.26"   Gusts: NA
Location:  38.9645°N, 85.0582°W
Report Text: KCVG 191252Z 01003KT 8SM FEW014 OVC017 M03/M07 A3026 RMK AO2 SLP255 T10281067
Loading
Personal Weather Stations






























Interactive Weather Map New forecast layout! Learn more

10-Day Weather Forecast

Advertisements
Track Severe Weather on mobile